Time;durP1;ratioP1;P1;durP2;ratioP2;P2;SDS_P1;SDS_P2;PMS_P1;PMS_P2;Temp;Humidity;BMP_temperature;BMP_pressure;BME280_temperature;BME280_humidity;BME280_pressure;Samples;Min_cycle;Max_cycle;Signal;HPM_P1;HPM_P2
2023/06/06 00:00:16;;;;;;;5.00;2.00;;;19.20;83.50;;;;;;4997376;28;20050;-70
2023/06/06 00:02:44;;;;;;;3.90;2.33;;;19.20;83.30;;;;;;4996620;28;20026;-70
2023/06/06 00:05:17;;;;;;;3.08;2.08;;;19.20;83.20;;;;;;4997031;28;20061;-70
2023/06/06 00:07:45;;;;;;;5.43;2.28;;;19.20;83.50;;;;;;4997338;28;20022;-70
2023/06/06 00:10:13;;;;;;;3.10;2.00;;;19.00;84.50;;;;;;4997332;28;20029;-70
2023/06/06 00:12:41;;;;;;;5.15;3.00;;;19.00;84.90;;;;;;4996458;28;20045;-70
2023/06/06 00:15:08;;;;;;;4.63;2.20;;;19.00;84.80;;;;;;4996930;28;20026;-71
2023/06/06 00:17:33;;;;;;;3.70;2.10;;;19.00;86.20;;;;;;4996851;28;20065;-71
2023/06/06 00:20:00;;;;;;;3.03;2.20;;;18.90;86.20;;;;;;4996446;28;20035;-71
2023/06/06 00:22:26;;;;;;;5.15;1.98;;;18.60;87.90;;;;;;4997402;28;20022;-71
2023/06/06 00:24:54;;;;;;;3.05;2.22;;;18.50;88.40;;;;;;4996274;28;20030;-71
2023/06/06 00:27:20;;;;;;;4.97;2.30;;;18.30;89.00;;;;;;4996740;28;20025;-71
2023/06/06 00:29:46;;;;;;;6.38;2.30;;;18.20;89.10;;;;;;4997167;28;20026;-70
2023/06/06 00:32:12;;;;;;;4.72;2.13;;;18.00;89.80;;;;;;4996355;28;20033;-70
2023/06/06 00:34:37;;;;;;;7.57;2.20;;;18.10;90.00;;;;;;4996240;28;20022;-70
2023/06/06 00:37:03;;;;;;;5.13;2.33;;;18.10;90.40;;;;;;5020334;22;20107;-71
2023/06/06 00:39:29;;;;;;;5.30;2.50;;;17.90;90.20;;;;;;4996465;28;20023;-72
2023/06/06 00:41:54;;;;;;;5.63;2.97;;;17.90;90.50;;;;;;4996176;28;20023;-71
2023/06/06 00:44:20;;;;;;;6.07;2.50;;;17.90;90.80;;;;;;4997420;28;20023;-71
2023/06/06 00:46:47;;;;;;;5.05;2.03;;;18.00;90.70;;;;;;4996210;28;20023;-71
2023/06/06 00:49:14;;;;;;;7.18;2.47;;;17.90;90.80;;;;;;4996763;28;20037;-70
2023/06/06 00:51:42;;;;;;;9.70;3.10;;;18.00;91.50;;;;;;4996242;28;20023;-71
2023/06/06 00:54:12;;;;;;;5.70;2.80;;;18.00;90.90;;;;;;4997212;28;20026;-70
2023/06/06 00:56:38;;;;;;;7.57;3.30;;;18.10;91.50;;;;;;4996872;28;20105;-70
2023/06/06 00:59:06;;;;;;;7.63;3.45;;;18.10;91.00;;;;;;4996157;28;20034;-70
2023/06/06 01:01:34;;;;;;;7.55;2.85;;;18.10;90.90;;;;;;4997153;28;20030;-71
2023/06/06 01:04:04;;;;;;;6.18;3.30;;;18.00;91.10;;;;;;4999835;28;20046;-70
2023/06/06 01:06:34;;;;;;;6.03;2.47;;;18.00;91.20;;;;;;4999780;28;20045;-70
2023/06/06 01:09:05;;;;;;;5.85;2.70;;;18.00;90.70;;;;;;4999485;28;20029;-72
2023/06/06 01:12:03;;;;;;;3.75;2.00;;;18.10;90.40;;;;;;4999935;28;20054;-71
2023/06/06 01:15:00;;;;;;;3.20;1.95;;;18.20;90.80;;;;;;4999492;28;20077;-71
2023/06/06 01:17:27;;;;;;;4.28;2.47;;;18.20;90.60;;;;;;4999861;28;20022;-71
2023/06/06 01:19:54;;;;;;;3.80;2.22;;;18.20;90.80;;;;;;4999673;28;20032;-71
2023/06/06 01:22:22;;;;;;;5.65;2.42;;;18.10;90.70;;;;;;4999367;28;20030;-71
2023/06/06 01:24:54;;;;;;;6.13;1.98;;;18.10;90.70;;;;;;5000358;28;20049;-70
2023/06/06 01:27:21;;;;;;;5.53;2.03;;;18.10;91.20;;;;;;4999287;28;20027;-71
2023/06/06 01:29:48;;;;;;;4.40;2.28;;;18.00;91.70;;;;;;4999138;28;20042;-70
2023/06/06 01:32:34;;;;;;;5.28;2.67;;;17.80;92.40;;;;;;4999356;28;20031;-70
2023/06/06 01:35:10;;;;;;;3.03;1.85;;;17.80;93.50;;;;;;4999965;28;20069;-71
2023/06/06 01:38:00;;;;;;;3.85;2.15;;;17.80;93.30;;;;;;4999116;28;20038;-71
2023/06/06 01:40:30;;;;;;;5.57;2.47;;;17.90;92.40;;;;;;4999676;28;20034;-71
2023/06/06 01:42:55;;;;;;;7.07;2.30;;;17.90;92.40;;;;;;4998902;28;20022;-71
2023/06/06 01:45:26;;;;;;;3.33;2.30;;;17.90;92.40;;;;;;4998886;28;20023;-71
2023/06/06 01:47:53;;;;;;;3.92;1.65;;;17.80;93.00;;;;;;4998743;28;20022;-71
2023/06/06 01:50:19;;;;;;;4.78;3.15;;;17.70;93.20;;;;;;4998943;28;20026;-71
2023/06/06 01:52:45;;;;;;;3.17;2.20;;;17.70;92.80;;;;;;4998712;28;20027;-71
2023/06/06 01:55:11;;;;;;;4.25;2.00;;;17.70;92.90;;;;;;4999589;28;20096;-71
2023/06/06 01:57:37;;;;;;;4.15;2.45;;;17.80;92.90;;;;;;4998730;28;20022;-70
2023/06/06 02:00:08;;;;;;;3.60;2.40;;;17.80;93.10;;;;;;4998535;28;20028;-71
2023/06/06 02:02:33;;;;;;;5.72;2.45;;;17.80;93.50;;;;;;4999499;28;20072;-72
2023/06/06 02:04:59;;;;;;;6.40;2.38;;;17.60;93.60;;;;;;4998774;28;20031;-71
2023/06/06 02:07:25;;;;;;;4.80;2.38;;;17.60;93.70;;;;;;4998363;28;20018;-71
2023/06/06 02:09:51;;;;;;;4.03;2.30;;;17.60;94.10;;;;;;4998743;28;20033;-71
2023/06/06 02:12:16;;;;;;;5.55;2.70;;;17.70;94.50;;;;;;4999473;28;20057;-71
2023/06/06 02:14:42;;;;;;;3.78;2.40;;;17.80;94.70;;;;;;4998583;28;20027;-71
2023/06/06 02:17:08;;;;;;;4.40;2.42;;;17.90;94.90;;;;;;4998230;28;20026;-71
2023/06/06 02:19:33;;;;;;;3.13;2.42;;;17.80;95.10;;;;;;4998448;28;20026;-71
2023/06/06 02:21:59;;;;;;;7.22;1.83;;;17.60;95.80;;;;;;4999048;28;20113;-71
2023/06/06 02:24:25;;;;;;;4.28;2.30;;;17.40;96.40;;;;;;4998993;28;20041;-70
2023/06/06 02:26:53;;;;;;;5.32;2.83;;;17.30;96.80;;;;;;4998358;28;20018;-70
2023/06/06 02:29:20;;;;;;;5.75;2.90;;;17.20;97.40;;;;;;4999151;28;20029;-70
2023/06/06 02:31:45;;;;;;;6.13;2.08;;;17.20;98.20;;;;;;4998356;28;20030;-71
2023/06/06 02:34:11;;;;;;;8.68;2.75;;;17.00;98.90;;;;;;4998060;28;20027;-70
2023/06/06 02:36:38;;;;;;;3.78;2.10;;;17.10;99.20;;;;;;4998684;28;20038;-71
2023/06/06 02:39:04;;;;;;;4.60;2.28;;;17.00;99.90;;;;;;4998310;28;20026;-71
2023/06/06 02:41:30;;;;;;;5.47;2.30;;;17.20;99.80;;;;;;4998155;28;20029;-71
2023/06/06 02:43:55;;;;;;;4.20;2.15;;;17.10;99.90;;;;;;4998163;28;20105;-71
2023/06/06 02:46:21;;;;;;;4.68;2.47;;;17.00;99.90;;;;;;4998793;28;20018;-70
2023/06/06 02:48:48;;;;;;;3.17;2.00;;;17.00;99.90;;;;;;4997697;28;20022;-71
2023/06/06 02:51:16;;;;;;;5.28;2.60;;;16.80;99.90;;;;;;4998103;28;20040;-71
2023/06/06 02:53:42;;;;;;;3.95;2.20;;;16.80;99.90;;;;;;4998719;28;20022;-71
2023/06/06 02:56:08;;;;;;;4.93;2.28;;;16.70;99.90;;;;;;4998611;28;20037;-71
2023/06/06 02:58:34;;;;;;;3.38;2.33;;;16.90;99.90;;;;;;4997797;28;20022;-70
2023/06/06 03:01:03;;;;;;;7.07;2.47;;;16.90;99.90;;;;;;4997590;28;20026;-72
2023/06/06 03:03:29;;;;;;;5.47;2.42;;;16.80;99.90;;;;;;4997439;28;20121;-72
2023/06/06 03:05:56;;;;;;;3.50;2.10;;;16.90;99.90;;;;;;4997463;28;20022;-70
2023/06/06 03:08:22;;;;;;;4.28;2.22;;;16.90;99.90;;;;;;4998366;28;20022;-71
2023/06/06 03:10:51;;;;;;;7.78;2.60;;;16.90;99.90;;;;;;4998145;28;20026;-71
2023/06/06 03:13:17;;;;;;;3.45;2.20;;;16.90;99.90;;;;;;4997181;28;20057;-71
2023/06/06 03:15:46;;;;;;;5.25;2.17;;;16.70;99.90;;;;;;4997092;28;20031;-70
2023/06/06 03:18:17;;;;;;;3.67;2.38;;;16.60;99.90;;;;;;4998139;28;20022;-71
2023/06/06 03:20:45;;;;;;;5.20;2.22;;;16.50;99.90;;;;;;4997313;28;20113;-70
2023/06/06 03:23:12;;;;;;;6.72;2.70;;;16.50;99.90;;;;;;4996995;28;20031;-70
2023/06/06 03:25:43;;;;;;;5.72;2.30;;;16.50;99.90;;;;;;4997016;28;20101;-70
2023/06/06 03:28:09;;;;;;;7.03;2.15;;;16.40;99.90;;;;;;4997089;28;20033;-70
2023/06/06 03:30:35;;;;;;;4.15;2.30;;;16.30;99.90;;;;;;4996971;28;20027;-71
2023/06/06 03:33:01;;;;;;;4.78;2.38;;;16.30;99.90;;;;;;4997748;28;20030;-70
2023/06/06 03:35:28;;;;;;;5.88;2.72;;;16.40;99.90;;;;;;4997378;28;20118;-70
2023/06/06 03:37:55;;;;;;;5.32;2.53;;;16.20;99.90;;;;;;4997220;28;20062;-72
2023/06/06 03:40:23;;;;;;;6.18;3.03;;;16.10;99.90;;;;;;4996972;28;20023;-70
2023/06/06 03:42:52;;;;;;;3.97;2.40;;;15.80;99.90;;;;;;4996637;28;20027;-70
2023/06/06 03:45:18;;;;;;;3.45;2.55;;;15.60;99.90;;;;;;4997793;28;20029;-70
2023/06/06 03:47:44;;;;;;;3.97;2.88;;;15.70;99.90;;;;;;4996644;28;20022;-71
2023/06/06 03:50:10;;;;;;;9.50;2.85;;;15.80;99.90;;;;;;4996776;28;20022;-70
2023/06/06 03:52:36;;;;;;;4.00;2.40;;;15.80;99.90;;;;;;4996797;28;20085;-70
2023/06/06 03:55:02;;;;;;;5.80;2.78;;;15.80;99.90;;;;;;4996763;28;20041;-70
2023/06/06 03:57:28;;;;;;;6.63;2.45;;;15.80;99.90;;;;;;4996717;28;20026;-70
2023/06/06 03:59:54;;;;;;;5.40;3.25;;;15.80;99.90;;;;;;4997005;28;20069;-70
2023/06/06 04:02:20;;;;;;;11.48;2.35;;;15.90;99.90;;;;;;4996632;28;20030;-71
2023/06/06 04:04:50;;;;;;;4.68;2.80;;;16.10;99.90;;;;;;4996662;28;20030;-70
2023/06/06 04:07:16;;;;;;;5.47;2.67;;;16.10;99.90;;;;;;4997308;28;20153;-71
2023/06/06 04:09:42;;;;;;;5.88;2.40;;;16.10;99.90;;;;;;4997391;28;20085;-72
2023/06/06 04:12:08;;;;;;;4.15;2.40;;;16.10;99.90;;;;;;4997510;28;20026;-72
2023/06/06 04:14:34;;;;;;;8.05;2.92;;;16.20;99.90;;;;;;4997560;28;20030;-72
2023/06/06 04:17:01;;;;;;;4.43;2.75;;;16.40;99.90;;;;;;4996827;28;20034;-72
2023/06/06 04:19:27;;;;;;;3.47;2.55;;;16.50;99.90;;;;;;4996859;28;20030;-72
2023/06/06 04:21:54;;;;;;;6.30;3.00;;;16.50;99.90;;;;;;4996849;28;20033;-72
2023/06/06 04:24:20;;;;;;;4.13;2.65;;;16.70;99.90;;;;;;4996423;28;20029;-72
2023/06/06 04:26:46;;;;;;;5.07;2.65;;;16.70;99.90;;;;;;4997215;28;20018;-72
2023/06/06 04:29:13;;;;;;;6.50;2.60;;;16.80;99.90;;;;;;4996676;28;20030;-72
2023/06/06 04:31:40;;;;;;;4.38;2.33;;;16.60;99.90;;;;;;4996580;28;20030;-72
2023/06/06 04:34:07;;;;;;;5.25;2.60;;;16.50;99.90;;;;;;4996492;28;20085;-72
2023/06/06 04:36:38;;;;;;;5.45;2.58;;;16.50;99.90;;;;;;4997523;28;20062;-72
2023/06/06 04:39:04;;;;;;;8.07;2.50;;;16.30;99.90;;;;;;5000298;28;20018;-72
2023/06/06 04:41:30;;;;;;;11.05;2.80;;;16.30;99.90;;;;;;5000005;28;20125;-72
2023/06/06 04:44:01;;;;;;;11.23;3.00;;;16.30;99.90;;;;;;5000277;28;20105;-72
2023/06/06 04:46:29;;;;;;;13.27;3.17;;;16.30;99.90;;;;;;5000711;28;20022;-72
2023/06/06 04:49:01;;;;;;;6.88;2.85;;;16.40;99.90;;;;;;5000583;28;20022;-72
2023/06/06 04:51:29;;;;;;;6.18;2.92;;;16.40;99.90;;;;;;5000941;28;20030;-72
2023/06/06 04:53:59;;;;;;;7.22;2.50;;;16.50;99.90;;;;;;4999937;28;20094;-72
2023/06/06 04:56:28;;;;;;;5.38;2.97;;;16.50;99.90;;;;;;5000057;28;20022;-72
2023/06/06 04:59:06;;;;;;;4.88;2.47;;;16.40;99.90;;;;;;4999828;28;20023;-72
2023/06/06 05:01:36;;;;;;;4.00;2.65;;;16.40;99.90;;;;;;5000537;28;20030;-72
2023/06/06 05:04:03;;;;;;;5.60;2.45;;;16.40;99.90;;;;;;4999931;28;20041;-72
2023/06/06 05:06:31;;;;;;;6.53;2.47;;;16.50;99.90;;;;;;4999481;28;20030;-72
2023/06/06 05:09:03;;;;;;;10.80;2.92;;;16.50;99.90;;;;;;5000473;28;20027;-72
2023/06/06 05:11:29;;;;;;;9.05;3.10;;;16.40;99.90;;;;;;5000377;28;20030;-72
2023/06/06 05:13:55;;;;;;;7.22;2.80;;;16.50;99.90;;;;;;4999600;28;20092;-72
2023/06/06 05:16:21;;;;;;;3.38;2.00;;;16.60;99.90;;;;;;4999790;28;20018;-72
2023/06/06 05:18:47;;;;;;;3.65;2.42;;;16.70;99.90;;;;;;5000252;28;20045;-72
2023/06/06 05:21:14;;;;;;;7.07;2.63;;;16.70;99.90;;;;;;4999857;28;20026;-72
2023/06/06 05:23:40;;;;;;;13.70;3.45;;;16.60;99.90;;;;;;4999147;28;20027;-72
2023/06/06 05:26:05;;;;;;;8.98;2.80;;;16.70;99.90;;;;;;4999970;28;20026;-72
2023/06/06 05:28:31;;;;;;;5.82;2.45;;;16.50;99.90;;;;;;5000026;28;20026;-72
2023/06/06 05:30:57;;;;;;;4.72;2.50;;;16.50;99.90;;;;;;4999663;28;20049;-72
2023/06/06 05:33:26;;;;;;;3.30;2.15;;;16.60;99.90;;;;;;4999028;28;20117;-72
2023/06/06 05:35:55;;;;;;;5.07;2.78;;;16.70;99.90;;;;;;4999575;28;20034;-72
2023/06/06 05:38:21;;;;;;;4.75;2.58;;;16.80;99.90;;;;;;4999837;28;20081;-72
2023/06/06 05:40:47;;;;;;;4.30;2.80;;;16.70;99.90;;;;;;4999249;28;20022;-72
2023/06/06 05:43:14;;;;;;;3.60;2.22;;;16.70;99.90;;;;;;4998960;28;20026;-72
2023/06/06 05:45:39;;;;;;;7.63;2.67;;;16.80;99.90;;;;;;4999185;28;20058;-72
2023/06/06 05:48:05;;;;;;;4.85;2.60;;;16.90;99.90;;;;;;4998052;28;20026;-72
2023/06/06 05:50:31;;;;;;;3.20;2.50;;;17.00;99.90;;;;;;4999002;28;20088;-72
2023/06/06 05:52:56;;;;;;;4.20;2.47;;;17.10;99.90;;;;;;4999049;28;20026;-72
2023/06/06 05:55:35;;;;;;;5.57;2.20;;;17.10;99.90;;;;;;4999061;28;20061;-72
2023/06/06 05:58:02;;;;;;;5.05;2.55;;;17.10;99.90;;;;;;4999114;28;20022;-72
2023/06/06 06:00:30;;;;;;;7.93;2.17;;;17.00;99.90;;;;;;4999421;28;20022;-72
2023/06/06 06:02:57;;;;;;;7.40;2.28;;;16.90;99.90;;;;;;4998929;28;20081;-72
2023/06/06 06:05:27;;;;;;;7.00;2.95;;;17.10;99.90;;;;;;4998855;28;20026;-72
2023/06/06 06:07:54;;;;;;;3.47;2.22;;;17.20;99.90;;;;;;4998772;28;20026;-72
2023/06/06 06:10:20;;;;;;;8.27;2.70;;;17.20;99.90;;;;;;4998786;28;20026;-72
2023/06/06 06:12:46;;;;;;;4.43;2.30;;;17.30;99.90;;;;;;4999255;28;20029;-72
2023/06/06 06:15:11;;;;;;;3.13;2.20;;;17.40;99.90;;;;;;4998342;28;20027;-72
2023/06/06 06:17:37;;;;;;;5.30;2.13;;;17.50;99.90;;;;;;4998393;28;20034;-72
2023/06/06 06:20:07;;;;;;;3.60;2.38;;;17.60;99.90;;;;;;4998851;28;20073;-72
2023/06/06 06:22:34;;;;;;;7.80;2.73;;;17.60;99.90;;;;;;4998998;28;20052;-72
2023/06/06 06:24:59;;;;;;;6.10;2.42;;;17.60;99.90;;;;;;4998478;28;20285;-72
2023/06/06 06:27:25;;;;;;;5.93;2.20;;;17.70;99.90;;;;;;4998311;28;20022;-72
2023/06/06 06:29:50;;;;;;;4.28;2.30;;;17.80;99.90;;;;;;4999049;28;20033;-72
2023/06/06 06:32:19;;;;;;;8.63;2.63;;;17.90;99.90;;;;;;4998208;28;20028;-72
2023/06/06 06:34:45;;;;;;;6.53;2.80;;;17.90;99.90;;;;;;4998892;28;20065;-72
2023/06/06 06:37:10;;;;;;;7.25;2.75;;;18.00;99.90;;;;;;5022005;22;20049;-68
2023/06/06 06:39:36;;;;;;;8.30;2.75;;;18.10;99.90;;;;;;4998463;28;20090;-69
2023/06/06 06:42:01;;;;;;;6.47;2.90;;;18.20;99.90;;;;;;4997602;28;20030;-69
2023/06/06 06:44:27;;;;;;;3.53;2.22;;;18.10;99.90;;;;;;4998689;28;20099;-69
2023/06/06 06:46:52;;;;;;;6.22;2.67;;;18.10;99.90;;;;;;4997557;28;20046;-69
2023/06/06 06:49:18;;;;;;;7.15;2.70;;;18.10;99.90;;;;;;4998447;28;20021;-69
2023/06/06 06:51:44;;;;;;;6.20;2.83;;;18.30;99.90;;;;;;4997735;28;20049;-68
2023/06/06 06:54:13;;;;;;;6.80;2.70;;;18.40;99.90;;;;;;4998689;28;20022;-69
2023/06/06 06:56:42;;;;;;;4.60;2.40;;;18.50;99.90;;;;;;4997589;28;20026;-69
2023/06/06 06:59:09;;;;;;;3.67;2.40;;;18.50;99.90;;;;;;4997333;28;20026;-70
2023/06/06 07:01:37;;;;;;;5.70;2.45;;;18.50;99.90;;;;;;4997733;28;20058;-69
2023/06/06 07:04:06;;;;;;;6.43;2.83;;;18.50;99.90;;;;;;4997418;28;20053;-70
2023/06/06 07:06:33;;;;;;;4.82;2.53;;;18.50;99.90;;;;;;4998105;28;20018;-69
2023/06/06 07:09:00;;;;;;;2.78;2.08;;;18.60;99.90;;;;;;4998616;28;20106;-69
2023/06/06 07:11:27;;;;;;;4.00;2.38;;;18.60;99.90;;;;;;4998164;28;20050;-70
2023/06/06 07:13:52;;;;;;;11.20;2.67;;;18.70;99.90;;;;;;4998166;28;20031;-68
2023/06/06 07:16:18;;;;;;;4.85;2.63;;;18.80;99.90;;;;;;4997136;28;20030;-68
2023/06/06 07:18:47;;;;;;;4.03;2.47;;;18.80;99.90;;;;;;4998121;28;20029;-68
2023/06/06 07:21:12;;;;;;;6.93;2.60;;;18.80;99.90;;;;;;4997125;28;20034;-68
2023/06/06 07:23:39;;;;;;;3.47;2.10;;;18.90;99.90;;;;;;4997919;28;20027;-69
2023/06/06 07:26:06;;;;;;;5.47;2.50;;;19.00;99.90;;;;;;4997298;28;20025;-69
2023/06/06 07:28:32;;;;;;;4.85;2.65;;;19.10;99.90;;;;;;4997466;28;20079;-69
2023/06/06 07:30:58;;;;;;;5.75;2.42;;;19.20;99.90;;;;;;4996988;28;20018;-69
2023/06/06 07:33:24;;;;;;;3.70;2.53;;;19.30;99.90;;;;;;4997483;28;20089;-69
2023/06/06 07:35:50;;;;;;;10.13;2.47;;;19.30;99.90;;;;;;4997330;28;20033;-69
2023/06/06 07:38:15;;;;;;;3.72;2.17;;;19.40;99.90;;;;;;4997270;28;20034;-69
2023/06/06 07:40:41;;;;;;;4.15;2.67;;;19.50;99.90;;;;;;4998146;28;20037;-68
2023/06/06 07:43:07;;;;;;;3.55;2.28;;;19.60;99.90;;;;;;4996843;28;20053;-69
2023/06/06 07:45:32;;;;;;;4.05;2.28;;;19.60;99.90;;;;;;4997319;28;20029;-68
2023/06/06 07:47:58;;;;;;;9.23;2.90;;;19.70;99.90;;;;;;4996786;28;20019;-68
2023/06/06 07:50:27;;;;;;;10.70;2.30;;;19.70;99.90;;;;;;4996761;28;20109;-68
2023/06/06 07:52:52;;;;;;;10.20;3.10;;;19.80;99.90;;;;;;4996843;28;20062;-68
2023/06/06 07:55:18;;;;;;;6.80;2.15;;;19.90;99.90;;;;;;4996857;28;20026;-67
2023/06/06 07:57:45;;;;;;;5.75;2.97;;;20.00;99.90;;;;;;4996683;28;20109;-68
2023/06/06 08:00:12;;;;;;;5.13;2.10;;;20.00;99.90;;;;;;4996960;28;20094;-68
2023/06/06 08:02:42;;;;;;;5.07;2.03;;;20.00;99.90;;;;;;4997421;28;20030;-67
2023/06/06 08:05:08;;;;;;;5.63;2.50;;;20.10;99.90;;;;;;4996697;28;20057;-68
2023/06/06 08:07:44;;;;;;;6.72;2.40;;;20.10;99.90;;;;;;4997502;28;20026;-68
2023/06/06 08:10:10;;;;;;;8.27;2.88;;;20.30;99.90;;;;;;4996767;28;20022;-68
2023/06/06 08:12:36;;;;;;;3.75;2.33;;;20.30;99.90;;;;;;5000428;28;20056;-68
2023/06/06 08:15:03;;;;;;;7.13;2.63;;;20.40;99.90;;;;;;5000549;28;20026;-68
2023/06/06 08:17:28;;;;;;;2.80;2.40;;;20.50;99.90;;;;;;5000516;28;20046;-68
2023/06/06 08:19:55;;;;;;;5.70;2.47;;;20.80;99.90;;;;;;5001493;28;20045;-67
2023/06/06 08:22:20;;;;;;;4.47;2.50;;;20.90;99.90;;;;;;5001123;28;20038;-68
2023/06/06 08:24:46;;;;;;;8.40;2.90;;;20.90;99.90;;;;;;5000855;28;20081;-68
2023/06/06 08:27:11;;;;;;;5.07;2.45;;;21.00;99.90;;;;;;5000650;28;20019;-68
2023/06/06 08:29:37;;;;;;;10.07;2.58;;;21.00;99.90;;;;;;5000642;28;20026;-67
2023/06/06 08:32:04;;;;;;;5.22;2.20;;;21.10;99.90;;;;;;5000882;28;20026;-68
2023/06/06 08:34:29;;;;;;;3.88;2.45;;;21.20;99.90;;;;;;5001110;28;20033;-67
2023/06/06 08:36:55;;;;;;;6.70;2.80;;;21.30;99.90;;;;;;5000358;28;20026;-68
2023/06/06 08:39:21;;;;;;;8.52;2.63;;;21.40;99.90;;;;;;5000312;28;20025;-68
2023/06/06 08:41:50;;;;;;;4.15;2.40;;;21.30;99.90;;;;;;4999998;28;20029;-68
2023/06/06 08:44:18;;;;;;;6.75;2.30;;;21.40;99.90;;;;;;5000110;28;20033;-67
2023/06/06 08:46:47;;;;;;;9.85;2.80;;;21.50;99.90;;;;;;5000136;28;20026;-68
2023/06/06 08:49:19;;;;;;;7.03;2.80;;;21.50;99.90;;;;;;5000750;28;20033;-68
2023/06/06 08:51:47;;;;;;;6.82;2.75;;;21.60;99.90;;;;;;4999927;28;20045;-68
2023/06/06 08:54:13;;;;;;;4.30;2.42;;;21.70;99.90;;;;;;4999829;28;20023;-68
2023/06/06 08:56:42;;;;;;;7.38;2.53;;;21.80;99.90;;;;;;4999737;28;20029;-67
2023/06/06 08:59:10;;;;;;;5.25;2.55;;;21.90;99.90;;;;;;5000099;28;20026;-68
2023/06/06 09:01:39;;;;;;;8.10;2.83;;;22.00;99.90;;;;;;4999803;28;20046;-68
2023/06/06 09:04:06;;;;;;;8.13;2.63;;;22.00;99.90;;;;;;5000823;28;20049;-68
2023/06/06 09:06:40;;;;;;;5.97;2.58;;;22.10;99.90;;;;;;4999693;28;20055;-68
2023/06/06 09:09:09;;;;;;;14.07;2.88;;;22.20;99.90;;;;;;5000681;28;20030;-67
2023/06/06 09:11:36;;;;;;;6.65;2.97;;;22.70;99.80;;;;;;4999451;28;20085;-67
2023/06/06 09:14:01;;;;;;;6.05;2.75;;;22.90;99.90;;;;;;4999999;28;20026;-68
2023/06/06 09:16:28;;;;;;;13.07;3.10;;;22.90;99.90;;;;;;4999492;28;20073;-67
2023/06/06 09:18:57;;;;;;;8.40;3.33;;;23.00;99.90;;;;;;4999383;28;20120;-67
2023/06/06 09:21:26;;;;;;;6.70;3.00;;;22.90;99.60;;;;;;5000313;28;20022;-68
2023/06/06 09:23:54;;;;;;;5.45;2.50;;;23.00;98.60;;;;;;4999562;28;20037;-68
2023/06/06 09:26:20;;;;;;;12.13;3.28;;;22.90;99.70;;;;;;5000043;28;20113;-68
2023/06/06 09:28:47;;;;;;;9.55;3.60;;;23.20;99.40;;;;;;5000199;28;20054;-68
2023/06/06 09:31:29;;;;;;;7.13;2.97;;;23.30;98.90;;;;;;4999121;28;20031;-68
2023/06/06 09:33:57;;;;;;;8.80;2.92;;;23.40;98.10;;;;;;5000195;28;20027;-68
2023/06/06 09:36:27;;;;;;;8.23;3.53;;;23.70;95.80;;;;;;4999304;28;20131;-68
2023/06/06 09:38:55;;;;;;;8.20;2.97;;;23.90;96.70;;;;;;4999141;28;20045;-68
2023/06/06 09:41:21;;;;;;;12.25;3.10;;;24.00;97.40;;;;;;4999324;28;20030;-68
2023/06/06 09:43:47;;;;;;;6.53;2.80;;;23.90;96.40;;;;;;4998884;28;20034;-68
2023/06/06 09:46:17;;;;;;;7.10;3.03;;;23.80;95.40;;;;;;4998922;28;20065;-67
2023/06/06 09:48:58;;;;;;;5.35;2.63;;;24.00;95.60;;;;;;4999214;28;20023;-68
2023/06/06 09:51:24;;;;;;;6.90;2.72;;;24.20;94.30;;;;;;4999794;28;20019;-68
2023/06/06 09:53:51;;;;;;;7.70;2.72;;;24.10;94.80;;;;;;4998771;28;20030;-68
2023/06/06 09:56:22;;;;;;;5.55;2.30;;;24.40;93.40;;;;;;4998899;28;20090;-67
2023/06/06 09:58:52;;;;;;;;;;;24.50;93.60;;;;;;4999861;28;20033;-68
2023/06/06 10:01:18;;;;;;;4.30;2.50;;;24.70;92.60;;;;;;4999557;28;19912;-68
2023/06/06 10:03:43;;;;;;;8.52;2.60;;;24.70;93.40;;;;;;4998604;28;20026;-67
2023/06/06 10:06:09;;;;;;;12.20;2.42;;;24.60;93.10;;;;;;4998598;28;20034;-68
2023/06/06 10:08:37;;;;;;;4.75;2.30;;;24.60;93.00;;;;;;4999607;28;20026;-68
2023/06/06 10:11:03;;;;;;;4.35;2.55;;;25.00;92.50;;;;;;4998711;28;20050;-67
2023/06/06 10:13:31;;;;;;;6.05;2.80;;;24.90;92.90;;;;;;4998312;28;20030;-67
2023/06/06 10:15:58;;;;;;;5.15;3.00;;;25.40;92.10;;;;;;4999519;28;20069;-68
2023/06/06 10:18:25;;;;;;;9.45;3.40;;;25.50;90.00;;;;;;4998219;28;20030;-67
2023/06/06 10:20:52;;;;;;;4.03;2.53;;;25.60;90.90;;;;;;4998259;28;20118;-68
2023/06/06 10:23:18;;;;;;;4.70;2.40;;;25.90;92.30;;;;;;4998492;28;20058;-67
2023/06/06 10:25:44;;;;;;;4.28;2.85;;;25.80;90.40;;;;;;4998489;28;20033;-67
2023/06/06 10:28:19;;;;;;;4.75;2.45;;;26.00;90.00;;;;;;4998061;28;20030;-68
2023/06/06 10:30:45;;;;;;;4.43;2.45;;;26.10;88.90;;;;;;4998328;28;20030;-67
2023/06/06 10:33:19;;;;;;;6.18;2.88;;;26.20;87.80;;;;;;4998263;28;20026;-68
2023/06/06 10:35:47;;;;;;;4.25;2.78;;;26.30;87.90;;;;;;4998813;28;20049;-68
2023/06/06 10:38:13;;;;;;;6.05;3.17;;;26.70;87.60;;;;;;4997742;28;20038;-68
2023/06/06 10:40:53;;;;;;;3.03;2.67;;;26.60;85.00;;;;;;4998084;28;20033;-67
2023/06/06 10:43:35;;;;;;;11.37;2.90;;;26.30;83.20;;;;;;4998558;28;20098;-68
2023/06/06 10:46:04;;;;;;;3.30;2.47;;;26.40;86.50;;;;;;4997759;28;20360;-68
2023/06/06 10:48:43;;;;;;;5.50;2.92;;;26.60;87.30;;;;;;4997766;28;20031;-68
2023/06/06 10:51:42;;;;;;;4.05;2.80;;;26.30;88.90;;;;;;4997603;28;20022;-68
2023/06/06 10:54:15;;;;;;;7.35;3.03;;;26.20;86.80;;;;;;4997664;28;20049;-67
2023/06/06 10:56:53;;;;;;;6.18;2.65;;;26.30;86.90;;;;;;4997586;28;20093;-68
2023/06/06 10:59:26;;;;;;;4.05;3.05;;;26.60;89.20;;;;;;4997625;28;20044;-68
2023/06/06 11:01:52;;;;;;;6.03;2.83;;;26.90;90.10;;;;;;4997391;28;20022;-68
2023/06/06 11:04:26;;;;;;;5.55;2.80;;;27.00;90.60;;;;;;4998468;28;20030;-68
2023/06/06 11:07:00;;;;;;;5.05;3.13;;;27.30;90.40;;;;;;4997307;28;20019;-68
2023/06/06 11:09:32;;;;;;;6.03;3.17;;;27.40;90.50;;;;;;4997941;28;20105;-68
2023/06/06 11:12:23;;;;;;;7.20;3.33;;;27.70;89.20;;;;;;4997576;28;20099;-67
2023/06/06 11:15:05;;;;;;;9.27;3.10;;;27.90;87.20;;;;;;4993119;28;20035;-68
2023/06/06 11:17:46;;;;;;;6.70;2.67;;;27.90;90.00;;;;;;4998087;28;20026;-68
2023/06/06 11:20:22;;;;;;;10.85;2.83;;;28.50;89.40;;;;;;4997166;28;20026;-68
2023/06/06 11:22:58;;;;;;;6.90;2.83;;;28.60;85.80;;;;;;4997479;28;20051;-68
2023/06/06 11:25:23;;;;;;;7.60;3.50;;;28.50;85.00;;;;;;4997145;28;20080;-68
2023/06/06 11:27:49;;;;;;;7.95;2.50;;;28.50;83.60;;;;;;4997406;28;20023;-68
2023/06/06 11:30:15;;;;;;;9.25;3.22;;;28.40;83.30;;;;;;4997849;28;20073;-68
2023/06/06 11:32:41;;;;;;;5.38;2.92;;;28.60;82.10;;;;;;4997127;28;20102;-68
2023/06/06 11:35:07;;;;;;;7.30;3.00;;;28.60;83.00;;;;;;4996904;28;20084;-68
2023/06/06 11:37:33;;;;;;;5.22;2.60;;;28.40;76.90;;;;;;4998121;28;20027;-68
2023/06/06 11:40:08;;;;;;;5.05;2.60;;;28.00;75.00;;;;;;4997698;28;20026;-68
2023/06/06 11:42:34;;;;;;;4.57;2.53;;;27.40;75.60;;;;;;4998123;28;20250;-68
2023/06/06 11:45:00;;;;;;;5.72;2.60;;;27.30;75.80;;;;;;4997617;28;20030;-67
2023/06/06 11:47:32;;;;;;;7.65;2.63;;;27.40;73.70;;;;;;4996886;28;20046;-67
2023/06/06 11:49:58;;;;;;;5.57;2.70;;;27.70;72.50;;;;;;4997836;28;20030;-68
2023/06/06 11:52:23;;;;;;;3.88;2.58;;;27.70;71.10;;;;;;4997540;28;20030;-68
2023/06/06 11:54:56;;;;;;;2.85;2.33;;;28.20;76.20;;;;;;4997640;28;20042;-68
2023/06/06 11:57:22;;;;;;;6.18;2.55;;;28.70;78.20;;;;;;4996773;28;20038;-67
2023/06/06 11:59:59;;;;;;;5.40;2.50;;;28.90;74.30;;;;;;4996534;28;20026;-68
2023/06/06 12:02:24;;;;;;;6.72;2.30;;;29.10;74.70;;;;;;4997651;28;20031;-67
2023/06/06 12:04:50;;;;;;;9.77;2.47;;;28.60;70.80;;;;;;4997438;28;20033;-68
2023/06/06 12:07:16;;;;;;;5.88;2.28;;;28.30;69.10;;;;;;4997735;28;20058;-68
2023/06/06 12:09:41;;;;;;;8.65;2.75;;;28.20;71.60;;;;;;4997080;28;20030;-66
2023/06/06 12:12:10;;;;;;;7.25;2.55;;;28.60;70.00;;;;;;4997590;28;20121;-66
2023/06/06 12:14:36;;;;;;;4.28;2.63;;;28.60;70.10;;;;;;4997615;28;20023;-67
2023/06/06 12:17:09;;;;;;;8.68;2.78;;;28.50;70.70;;;;;;4997734;28;20033;-67
2023/06/06 12:19:36;;;;;;;6.22;2.83;;;28.80;69.10;;;;;;4996593;28;20023;-67
2023/06/06 12:22:01;;;;;;;4.28;2.47;;;29.10;67.70;;;;;;4996421;28;20088;-67
2023/06/06 12:24:32;;;;;;;8.23;2.40;;;29.10;68.00;;;;;;4996949;28;20117;-67
2023/06/06 12:27:05;;;;;;;5.03;2.88;;;29.10;67.70;;;;;;4996575;28;20027;-67
2023/06/06 12:29:35;;;;;;;8.40;2.70;;;29.10;66.80;;;;;;4996555;28;20169;-67
2023/06/06 12:32:21;;;;;;;4.13;2.53;;;28.90;68.10;;;;;;4996593;28;20022;-66
2023/06/06 12:35:05;;;;;;;5.75;2.53;;;28.90;67.90;;;;;;4996429;28;20046;-68
2023/06/06 12:37:37;;;;;;;8.02;2.78;;;28.90;67.90;;;;;;5012273;22;20034;-70
2023/06/06 12:40:09;;;;;;;10.63;2.70;;;28.90;69.00;;;;;;4993081;28;20070;-71
2023/06/06 12:42:34;;;;;;;8.10;3.05;;;29.10;68.10;;;;;;4993089;28;20022;-68
2023/06/06 12:45:00;;;;;;;4.85;2.22;;;29.00;69.10;;;;;;4993518;28;20023;-68
2023/06/06 12:47:25;;;;;;;4.80;2.58;;;28.70;68.20;;;;;;4977611;28;20105;-68
2023/06/06 12:49:51;;;;;;;14.27;2.65;;;28.00;70.90;;;;;;4976936;28;20103;-68